Time;durP1;ratioP1;P1;durP2;ratioP2;P2;SDS_P1;SDS_P2;PMS_P1;PMS_P2;Temp;Humidity;BMP_temperature;BMP_pressure;BME280_temperature;BME280_humidity;BME280_pressure;Samples;Min_cycle;Max_cycle;Signal;HPM_P1;HPM_P2
2023/12/16 00:02:02;;;;;;;;;;;;;;;22.27;25.28;98997.63;4981696;28;931;-72
2023/12/16 00:04:28;;;;;;;;;;;;;;;22.19;25.61;99013.13;4999603;28;1209;-71
2023/12/16 00:06:54;;;;;;;;;;;;;;;22.11;25.61;99008.78;4998705;28;1143;-72
2023/12/16 00:09:19;;;;;;;;;;;;;;;22.22;25.42;99005.81;5016013;28;985;-72
2023/12/16 00:11:45;;;;;;;;;;;;;;;22.65;24.97;99005.22;4999377;28;1171;-72
2023/12/16 00:14:10;;;;;;;;;;;;;;;22.11;25.78;99008.78;5011978;28;1973;-72
2023/12/16 00:16:36;;;;;;;;;;;;;;;22.64;24.90;99004.41;5017782;28;910;-72
2023/12/16 00:19:01;;;;;;;;;;;;;;;22.90;24.52;99008.50;5017720;28;961;-72
2023/12/16 00:21:27;;;;;;;;;;;;;;;22.75;24.84;99010.72;5016620;28;1043;-72
2023/12/16 00:23:53;;;;;;;;;;;;;;;22.63;24.88;99011.31;5017687;28;962;-72
2023/12/16 00:26:18;;;;;;;;;;;;;;;22.48;24.99;99015.56;5017903;28;861;-72
2023/12/16 00:28:44;;;;;;;;;;;;;;;21.93;25.77;99017.47;5000330;28;993;-72
2023/12/16 00:31:09;;;;;;;;;;;;;;;21.43;26.26;99017.22;5016457;28;1182;-71
2023/12/16 00:33:35;;;;;;;;;;;;;;;22.42;25.17;99008.78;5016222;28;1898;-72
2023/12/16 00:36:01;;;;;;;;;;;;;;;22.84;24.61;99013.81;5016418;28;962;-72
2023/12/16 00:38:26;;;;;;;;;;;;;;;23.05;24.19;99023.25;5017702;28;910;-71
2023/12/16 00:40:52;;;;;;;;;;;;;;;22.87;24.47;99012.97;5016445;28;1384;-72
2023/12/16 00:43:17;;;;;;;;;;;;;;;22.90;24.29;99005.66;4983112;28;992;-72
2023/12/16 00:45:43;;;;;;;;;;;;;;;22.61;24.30;99014.56;4999868;28;985;-72
2023/12/16 00:48:08;;;;;;;;;;;;;;;21.88;25.68;99015.13;5017157;28;958;-72
2023/12/16 00:50:38;;;;;;;;;;;;;;;21.15;26.54;99002.09;4999952;28;1082;-71
2023/12/16 00:53:03;;;;;;;;;;;;;;;22.19;25.29;99007.47;5015853;28;1898;-72
2023/12/16 00:55:29;;;;;;;;;;;;;;;22.51;24.67;99003.38;5017577;28;1046;-73
2023/12/16 00:57:54;;;;;;;;;;;;;;;22.86;24.48;98997.19;5017145;28;1015;-73
2023/12/16 01:00:20;;;;;;;;;;;;;;;22.88;24.24;99003.25;5016097;28;905;-73
2023/12/16 01:02:45;;;;;;;;;;;;;;;22.67;24.41;99006.38;5017170;28;977;-73
2023/12/16 01:05:11;;;;;;;;;;;;;;;22.15;25.13;99012.38;5015836;28;898;-73
2023/12/16 01:07:36;;;;;;;;;;;;;;;22.01;25.31;99009.69;5016212;28;939;-73
2023/12/16 01:10:02;;;;;;;;;;;;;;;21.98;25.36;99013.38;5015967;28;887;-73
2023/12/16 01:12:28;;;;;;;;;;;;;;;22.39;24.84;99023.81;5015998;28;1167;-73
2023/12/16 01:14:53;;;;;;;;;;;;;;;22.69;24.55;99011.63;4998150;28;1914;-73
2023/12/16 01:17:19;;;;;;;;;;;;;;;22.72;24.59;99011.56;5015982;28;950;-73
2023/12/16 01:19:44;;;;;;;;;;;;;;;22.69;24.43;99006.78;4998241;28;922;-73
2023/12/16 01:22:10;;;;;;;;;;;;;;;22.60;24.49;99009.34;5015781;28;923;-73
2023/12/16 01:24:37;;;;;;;;;;;;;;;22.28;24.92;99015.47;4981745;28;969;-73
2023/12/16 01:27:05;;;;;;;;;;;;;;;22.07;24.85;99010.81;5015623;28;1533;-74
2023/12/16 01:29:30;;;;;;;;;;;;;;;22.05;25.19;99004.78;4999373;28;917;-73
2023/12/16 01:31:56;;;;;;;;;;;;;;;22.56;24.70;99014.25;5015680;28;950;-73
2023/12/16 01:34:21;;;;;;;;;;;;;;;21.95;24.63;98926.38;5015860;28;1993;-73
2023/12/16 01:36:47;;;;;;;;;;;;;;;22.82;24.16;99024.81;5016743;28;890;-73
2023/12/16 01:39:12;;;;;;;;;;;;;;;22.93;23.98;99018.19;4999196;28;1029;-73
2023/12/16 01:41:38;;;;;;;;;;;;;;;22.85;23.85;99021.13;5016705;28;1128;-73
2023/12/16 01:44:03;;;;;;;;;;;;;;;22.28;24.64;99021.94;5015526;28;1405;-73
2023/12/16 01:46:29;;;;;;;;;;;;;;;22.15;24.82;99026.56;5015301;28;1142;-73
2023/12/16 01:48:54;;;;;;;;;;;;;;;22.50;24.54;99028.13;5015027;28;974;-73
2023/12/16 01:51:20;;;;;;;;;;;;;;;22.57;24.56;99027.19;5015362;28;1220;-73
2023/12/16 01:53:45;;;;;;;;;;;;;;;22.19;25.09;99018.81;5015367;28;1985;-73
2023/12/16 01:56:11;;;;;;;;;;;;;;;21.94;25.36;99018.28;5016065;28;910;-73
2023/12/16 01:58:37;;;;;;;;;;;;;;;21.88;25.39;99019.97;5015707;28;968;-74
2023/12/16 02:01:03;;;;;;;;;;;;;;;21.91;25.54;99014.25;5014970;28;935;-73
2023/12/16 02:03:28;;;;;;;;;;;;;;;22.45;24.70;99007.94;4998528;28;1394;-73
2023/12/16 02:05:55;;;;;;;;;;;;;;;22.81;24.03;99020.34;5016396;28;947;-72
2023/12/16 02:08:20;;;;;;;;;;;;;;;22.61;24.45;99013.78;4998601;28;989;-73
2023/12/16 02:10:45;;;;;;;;;;;;;;;22.65;23.98;99023.03;5015061;28;944;-73
2023/12/16 02:13:11;;;;;;;;;;;;;;;22.49;24.52;99028.53;5015982;28;1906;-73
2023/12/16 02:15:36;;;;;;;;;;;;;;;22.72;23.92;99034.28;5014904;28;1037;-73
2023/12/16 02:18:02;;;;;;;;;;;;;;;22.28;24.45;99027.59;5015153;28;911;-73
2023/12/16 02:20:28;;;;;;;;;;;;;;;21.85;24.94;99028.06;5015389;28;1444;-73
2023/12/16 02:22:53;;;;;;;;;;;;;;;21.60;25.47;99033.22;4997437;28;1097;-73
2023/12/16 02:25:19;;;;;;;;;;;;;;;22.66;24.13;99041.66;5013539;28;1047;-73
2023/12/16 02:27:45;;;;;;;;;;;;;;;22.92;23.95;99042.13;5013747;28;1004;-73
2023/12/16 02:30:10;;;;;;;;;;;;;;;22.58;24.29;99040.16;5014502;28;999;-73
2023/12/16 02:32:36;;;;;;;;;;;;;;;22.83;24.08;99037.75;5017680;28;981;-73
2023/12/16 02:35:01;;;;;;;;;;;;;;;22.81;23.86;99043.06;5000790;28;1902;-73
2023/12/16 02:37:27;;;;;;;;;;;;;;;22.40;24.24;99045.28;5017928;28;969;-73
2023/12/16 02:39:52;;;;;;;;;;;;;;;22.03;24.79;99061.09;5017326;28;1169;-73
2023/12/16 02:42:18;;;;;;;;;;;;;;;22.13;24.89;99060.19;5017500;28;1039;-73
2023/12/16 02:44:43;;;;;;;;;;;;;;;22.07;24.93;99073.16;5017646;28;958;-73
2023/12/16 02:47:09;;;;;;;;;;;;;;;22.10;24.75;99070.34;5017495;28;1001;-73
2023/12/16 02:49:34;;;;;;;;;;;;;;;22.06;24.85;99074.41;5017295;28;1189;-73
2023/12/16 02:52:00;;;;;;;;;;;;;;;22.63;24.10;99076.53;5017428;28;972;-73
2023/12/16 02:54:28;;;;;;;;;;;;;;;22.81;23.92;99071.44;5018884;28;1980;-74
2023/12/16 02:56:54;;;;;;;;;;;;;;;22.77;23.54;99076.34;5019709;28;968;-73
2023/12/16 02:59:19;;;;;;;;;;;;;;;23.10;23.38;99079.53;5019540;28;852;-73
2023/12/16 03:01:45;;;;;;;;;;;;;;;22.76;23.67;99080.44;5018283;28;1162;-73
2023/12/16 03:04:10;;;;;;;;;;;;;;;22.27;24.53;99088.34;5019117;28;973;-73
2023/12/16 03:06:41;;;;;;;;;;;;;;;22.06;24.67;99091.41;5019631;28;955;-72
2023/12/16 03:09:07;;;;;;;;;;;;;;;21.74;25.33;99083.25;5018344;28;923;-73
2023/12/16 03:11:32;;;;;;;;;;;;;;;22.24;24.47;99091.25;5018225;28;1040;-73
2023/12/16 03:13:58;;;;;;;;;;;;;;;22.65;24.14;99093.97;5001631;28;1963;-72
2023/12/16 03:16:23;;;;;;;;;;;;;;;22.83;23.83;99091.66;5017744;28;958;-73
2023/12/16 03:18:49;;;;;;;;;;;;;;;22.98;23.54;99092.28;5018902;28;1038;-73
2023/12/16 03:21:14;;;;;;;;;;;;;;;22.93;23.40;99098.44;5000163;28;997;-73
2023/12/16 03:23:40;;;;;;;;;;;;;;;22.73;23.74;99100.34;5016844;28;960;-73
2023/12/16 03:26:06;;;;;;;;;;;;;;;22.30;24.33;99098.84;4993476;28;995;-73
2023/12/16 03:28:31;;;;;;;;;;;;;;;21.45;25.18;99094.03;4977747;28;981;-73
2023/12/16 03:30:57;;;;;;;;;;;;;;;21.76;24.85;99109.13;4977225;28;914;-73
2023/12/16 03:33:22;;;;;;;;;;;;;;;21.87;24.44;99097.72;4977065;28;1895;-73
2023/12/16 03:35:48;;;;;;;;;;;;;;;21.78;24.92;99096.16;4977225;28;1059;-74
2023/12/16 03:38:13;;;;;;;;;;;;;;;22.21;24.20;99094.91;4977184;28;992;-73
2023/12/16 03:40:39;;;;;;;;;;;;;;;22.69;23.63;99094.72;4976983;28;1090;-73
2023/12/16 03:43:04;;;;;;;;;;;;;;;22.90;23.41;99092.81;4957757;29;1640;-73
2023/12/16 03:45:30;;;;;;;;;;;;;;;23.01;23.36;99087.81;4957926;29;1056;-73
2023/12/16 03:47:55;;;;;;;;;;;;;;;23.03;23.26;99088.97;4941795;29;996;-73
2023/12/16 03:50:21;;;;;;;;;;;;;;;22.94;23.29;99096.41;4941983;29;1067;-73
2023/12/16 03:52:46;;;;;;;;;;;;;;;22.85;23.48;99094.91;4955444;28;942;-73
2023/12/16 03:55:12;;;;;;;;;;;;;;;22.57;23.64;99083.94;4961208;28;1910;-73
2023/12/16 03:57:37;;;;;;;;;;;;;;;22.15;24.03;99097.41;4989178;28;1040;-72
2023/12/16 04:00:03;;;;;;;;;;;;;;;22.08;24.35;99105.97;5000001;28;1131;-73
2023/12/16 04:02:37;;;;;;;;;;;;;;;22.02;24.54;99110.47;5000515;28;1086;-73
2023/12/16 04:05:03;;;;;;;;;;;;;;;22.36;24.11;99108.50;4983200;28;1071;-73
2023/12/16 04:07:28;;;;;;;;;;;;;;;22.70;23.59;99116.19;4999664;28;1087;-73
2023/12/16 04:09:54;;;;;;;;;;;;;;;22.83;23.45;99113.56;5015914;28;970;-73
2023/12/16 04:12:19;;;;;;;;;;;;;;;22.90;23.33;99118.34;4999333;28;958;-73
2023/12/16 04:14:45;;;;;;;;;;;;;;;22.87;23.22;99117.97;5017404;28;1990;-73
2023/12/16 04:17:10;;;;;;;;;;;;;;;22.71;23.62;99123.47;4979871;28;974;-73
2023/12/16 04:19:36;;;;;;;;;;;;;;;22.32;23.84;99124.75;4979986;28;1069;-73
2023/12/16 04:22:02;;;;;;;;;;;;;;;22.07;24.31;99139.19;4980295;28;1168;-73
2023/12/16 04:24:27;;;;;;;;;;;;;;;22.10;24.37;99148.88;4995730;28;1055;-73
2023/12/16 04:26:55;;;;;;;;;;;;;;;22.23;24.26;99154.84;4995837;28;996;-73
2023/12/16 04:29:20;;;;;;;;;;;;;;;21.77;24.61;99139.88;4979634;28;1270;-73
2023/12/16 04:31:46;;;;;;;;;;;;;;;22.17;24.17;99151.66;4995851;28;924;-73
2023/12/16 04:34:12;;;;;;;;;;;;;;;22.84;23.57;99160.56;4995690;28;1906;-73
2023/12/16 04:36:37;;;;;;;;;;;;;;;22.99;23.18;99158.38;4995645;28;1068;-72
2023/12/16 04:39:07;;;;;;;;;;;;;;;23.09;23.05;99157.44;4979352;28;976;-73
2023/12/16 04:41:33;;;;;;;;;;;;;;;22.71;23.55;99157.50;4995849;28;948;-73
2023/12/16 04:43:58;;;;;;;;;;;;;;;22.47;23.86;99148.06;4996003;28;960;-73
2023/12/16 04:46:24;;;;;;;;;;;;;;;22.22;24.07;99164.56;4995716;28;1018;-73
2023/12/16 04:48:49;;;;;;;;;;;;;;;22.19;24.22;99169.06;5012602;28;931;-73
2023/12/16 04:51:15;;;;;;;;;;;;;;;22.53;23.93;99169.06;5016656;28;1154;-73
2023/12/16 04:53:41;;;;;;;;;;;;;;;22.40;23.97;99164.38;4999014;28;1914;-73
2023/12/16 04:56:06;;;;;;;;;;;;;;;22.39;23.75;99157.09;5000120;28;1057;-72
2023/12/16 04:58:32;;;;;;;;;;;;;;;21.78;24.43;99164.16;5016276;28;955;-73
2023/12/16 05:00:57;;;;;;;;;;;;;;;22.40;23.98;99170.06;4998754;28;1126;-73
2023/12/16 05:03:23;;;;;;;;;;;;;;;22.65;23.69;99164.88;5016206;28;867;-73
2023/12/16 05:05:49;;;;;;;;;;;;;;;22.97;23.19;99166.53;5015737;28;938;-73
2023/12/16 05:08:14;;;;;;;;;;;;;;;22.82;23.10;99175.19;5016368;28;961;-74
2023/12/16 05:10:40;;;;;;;;;;;;;;;22.30;23.94;99172.56;5017201;28;853;-73
2023/12/16 05:13:07;;;;;;;;;;;;;;;22.01;24.18;99171.22;5015985;28;947;-72
2023/12/16 05:15:33;;;;;;;;;;;;;;;22.22;24.11;99182.38;5016184;28;1135;-73
2023/12/16 05:17:58;;;;;;;;;;;;;;;22.69;23.44;99177.00;5015791;28;1234;-73
2023/12/16 05:20:24;;;;;;;;;;;;;;;22.85;23.30;99180.03;5015445;28;929;-73
2023/12/16 05:22:49;;;;;;;;;;;;;;;22.76;23.31;99176.09;5015675;28;1177;-73
2023/12/16 05:25:15;;;;;;;;;;;;;;;22.82;23.20;99186.53;4994841;28;1238;-73
2023/12/16 05:27:41;;;;;;;;;;;;;;;22.09;24.27;99189.78;4994539;28;966;-73
2023/12/16 05:30:07;;;;;;;;;;;;;;;21.20;25.15;99202.59;4978443;28;1174;-73
2023/12/16 05:32:33;;;;;;;;;;;;;;;22.18;24.39;99186.50;4994771;28;1255;-73
2023/12/16 05:34:58;;;;;;;;;;;;;;;22.58;23.64;99194.13;4978327;28;1993;-72
2023/12/16 05:37:24;;;;;;;;;;;;;;;22.57;23.80;99191.72;4994830;28;1015;-73
2023/12/16 05:39:49;;;;;;;;;;;;;;;22.77;23.35;99204.03;4978202;28;941;-73
2023/12/16 05:42:15;;;;;;;;;;;;;;;23.07;22.84;99196.81;4978258;28;903;-73
2023/12/16 05:44:40;;;;;;;;;;;;;;;22.87;23.05;99193.78;4994510;28;1000;-73
2023/12/16 05:47:07;;;;;;;;;;;;;;;22.57;23.54;99198.19;4978040;28;1448;-73
2023/12/16 05:49:32;;;;;;;;;;;;;;;22.47;23.42;99201.16;4994356;28;929;-73
2023/12/16 05:51:58;;;;;;;;;;;;;;;22.04;24.01;99195.91;4978135;28;1258;-73
2023/12/16 05:54:24;;;;;;;;;;;;;;;21.74;24.62;99203.03;4994498;28;1907;-73
2023/12/16 05:56:50;;;;;;;;;;;;;;;21.91;24.30;99206.94;5004991;28;1127;-73
2023/12/16 05:59:15;;;;;;;;;;;;;;;21.82;24.49;99204.59;4997299;28;976;-73
2023/12/16 06:01:41;;;;;;;;;;;;;;;22.55;23.45;99205.53;5013720;28;991;-73
2023/12/16 06:04:06;;;;;;;;;;;;;;;22.66;23.36;99206.22;5013892;28;1297;-72
2023/12/16 06:06:32;;;;;;;;;;;;;;;22.85;23.19;99191.38;5017362;28;989;-72
2023/12/16 06:08:57;;;;;;;;;;;;;;;22.99;23.08;99207.44;5017849;28;957;-71
2023/12/16 06:11:23;;;;;;;;;;;;;;;22.76;23.25;99205.28;5001526;28;989;-72
2023/12/16 06:13:50;;;;;;;;;;;;;;;22.74;23.20;99202.06;5017811;28;1975;-73
2023/12/16 06:16:16;;;;;;;;;;;;;;;22.07;24.02;99198.72;5017832;28;902;-73
2023/12/16 06:18:41;;;;;;;;;;;;;;;21.91;24.45;99214.63;5017955;28;949;-72
2023/12/16 06:21:09;;;;;;;;;;;;;;;22.13;24.00;99212.47;5017959;28;876;-72
2023/12/16 06:23:34;;;;;;;;;;;;;;;21.68;24.59;99233.03;5017594;28;1233;-72
2023/12/16 06:26:00;;;;;;;;;;;;;;;22.44;23.75;99233.22;5018065;28;1251;-73
2023/12/16 06:28:26;;;;;;;;;;;;;;;22.82;23.03;99231.94;5017960;28;953;-73
2023/12/16 06:30:51;;;;;;;;;;;;;;;22.83;22.93;99238.44;5032577;28;1304;-73
2023/12/16 06:33:17;;;;;;;;;;;;;;;22.88;22.96;99246.50;5037342;28;1913;-73
2023/12/16 06:35:42;;;;;;;;;;;;;;;22.95;22.90;99251.28;5020883;28;1225;-73
2023/12/16 06:38:08;;;;;;;;;;;;;;;22.95;22.92;99254.13;5021012;28;1175;-73
2023/12/16 06:40:33;;;;;;;;;;;;;;;22.73;22.98;99260.03;5004137;28;1136;-73
2023/12/16 06:42:59;;;;;;;;;;;;;;;22.32;23.67;99257.22;5037049;28;1089;-73
2023/12/16 06:45:24;;;;;;;;;;;;;;;21.80;24.20;99274.22;4981277;28;1124;-73
2023/12/16 06:47:50;;;;;;;;;;;;;;;22.00;24.20;99282.97;4997454;28;941;-73
2023/12/16 06:50:15;;;;;;;;;;;;;;;22.11;23.90;99278.06;4965005;28;1058;-74
2023/12/16 06:52:41;;;;;;;;;;;;;;;21.81;24.47;99288.00;4963687;28;1713;-73
2023/12/16 06:55:07;;;;;;;;;;;;;;;22.58;23.43;99278.41;4946350;28;2041;-73
2023/12/16 06:57:32;;;;;;;;;;;;;;;22.51;23.33;99289.84;4962086;28;1441;-74
2023/12/16 06:59:58;;;;;;;;;;;;;;;22.84;23.17;99286.25;4961979;28;1137;-73
2023/12/16 07:02:24;;;;;;;;;;;;;;;23.10;22.57;99292.47;4975703;28;1066;-73
2023/12/16 07:04:49;;;;;;;;;;;;;;;22.92;22.87;99297.56;4997330;28;958;-73
2023/12/16 07:07:15;;;;;;;;;;;;;;;22.68;22.97;99300.19;4997346;28;948;-73
2023/12/16 07:09:40;;;;;;;;;;;;;;;22.41;23.56;99296.44;4997274;28;1163;-74
2023/12/16 07:12:06;;;;;;;;;;;;;;;21.24;25.06;99302.44;4981285;28;1157;-73
2023/12/16 07:14:33;;;;;;;;;;;;;;;21.84;24.40;99309.81;4964458;28;1910;-73
2023/12/16 07:16:58;;;;;;;;;;;;;;;22.04;24.15;99303.59;4972050;28;1002;-73
2023/12/16 07:19:24;;;;;;;;;;;;;;;22.59;23.34;99319.78;4961762;28;1039;-73
2023/12/16 07:21:49;;;;;;;;;;;;;;;22.68;23.29;99308.72;4961398;28;917;-73
2023/12/16 07:24:15;;;;;;;;;;;;;;;22.88;22.70;99309.75;4977543;28;1051;-73
2023/12/16 07:26:40;;;;;;;;;;;;;;;22.77;23.15;99309.03;4961272;28;989;-73
2023/12/16 07:29:06;;;;;;;;;;;;;;;23.20;22.49;99317.06;4977470;28;1021;-73
2023/12/16 07:31:32;;;;;;;;;;;;;;;22.77;23.01;99314.72;4977339;28;997;-73
2023/12/16 07:33:57;;;;;;;;;;;;;;;22.35;23.59;99316.72;4945435;28;1910;-73
2023/12/16 07:36:23;;;;;;;;;;;;;;;21.93;23.83;99317.06;4961264;28;1040;-73
2023/12/16 07:38:48;;;;;;;;;;;;;;;21.88;24.07;99321.13;4977502;28;1094;-73
2023/12/16 07:41:14;;;;;;;;;;;;;;;22.00;24.14;99311.31;4961173;28;1019;-73
2023/12/16 07:43:40;;;;;;;;;;;;;;;22.62;23.36;99313.25;4977077;28;1367;-73
2023/12/16 07:46:06;;;;;;;;;;;;;;;22.88;22.69;99318.25;4961566;28;947;-73
2023/12/16 07:48:31;;;;;;;;;;;;;;;23.05;22.73;99324.16;4987315;28;1091;-73
2023/12/16 07:50:57;;;;;;;;;;;;;;;22.97;22.70;99322.63;4997794;28;911;-73
2023/12/16 07:53:22;;;;;;;;;;;;;;;22.77;22.85;99326.06;4998636;28;1914;-73
2023/12/16 07:55:48;;;;;;;;;;;;;;;22.48;23.21;99336.88;4997644;28;1221;-72
2023/12/16 07:58:14;;;;;;;;;;;;;;;22.46;23.10;99338.53;4997479;28;967;-73
2023/12/16 08:00:40;;;;;;;;;;;;;;;22.23;23.30;99345.59;4997730;28;1215;-73
2023/12/16 08:03:06;;;;;;;;;;;;;;;22.36;23.59;99335.34;4997726;28;913;-73
2023/12/16 08:05:31;;;;;;;;;;;;;;;22.76;23.07;99338.63;4997727;28;787;-73
2023/12/16 08:07:57;;;;;;;;;;;;;;;22.82;22.77;99334.09;4998381;28;985;-73
2023/12/16 08:10:22;;;;;;;;;;;;;;;22.94;22.84;99346.19;4996902;28;897;-72
2023/12/16 08:12:47;;;;;;;;;;;;;;;22.92;22.74;99343.78;4997642;28;920;-72
2023/12/16 08:15:13;;;;;;;;;;;;;;;23.00;22.59;99344.50;4979378;28;1899;-73
2023/12/16 08:17:39;;;;;;;;;;;;;;;22.45;23.17;99365.28;4996169;28;876;-73
2023/12/16 08:20:05;;;;;;;;;;;;;;;22.12;23.70;99358.22;4996138;28;870;-73
2023/12/16 08:22:31;;;;;;;;;;;;;;;22.41;23.45;99370.97;4999038;28;1099;-73
2023/12/16 08:24:57;;;;;;;;;;;;;;;21.63;24.24;99372.28;4999298;28;1255;-73
2023/12/16 08:27:23;;;;;;;;;;;;;;;22.04;23.96;99357.47;4998215;28;1144;-73
2023/12/16 08:29:49;;;;;;;;;;;;;;;21.98;24.19;99373.28;5015157;28;1420;-73
2023/12/16 08:32:15;;;;;;;;;;;;;;;22.28;23.67;99375.56;4999001;28;886;-73
2023/12/16 08:34:40;;;;;;;;;;;;;;;22.52;23.47;99371.69;5014939;28;2025;-72
2023/12/16 08:37:06;;;;;;;;;;;;;;;22.64;22.99;99367.53;5015100;28;934;-73
2023/12/16 08:39:31;;;;;;;;;;;;;;;23.00;22.63;99362.34;4998972;28;930;-73
2023/12/16 08:41:57;;;;;;;;;;;;;;;22.98;22.65;99376.16;5015496;28;1043;-73
2023/12/16 08:44:22;;;;;;;;;;;;;;;22.80;22.67;99364.97;5014965;28;886;-73
2023/12/16 08:46:48;;;;;;;;;;;;;;;22.40;23.38;99369.38;5013479;28;889;-74
2023/12/16 08:49:13;;;;;;;;;;;;;;;22.05;23.55;99364.72;4998590;28;1091;-74
2023/12/16 08:51:39;;;;;;;;;;;;;;;22.16;23.77;99354.16;5017825;28;1400;-73
2023/12/16 08:54:04;;;;;;;;;;;;;;;22.76;22.91;99352.81;5017830;28;1930;-73
2023/12/16 08:56:30;;;;;;;;;;;;;;;22.58;23.34;99357.84;5018335;28;1230;-72
2023/12/16 08:58:55;;;;;;;;;;;;;;;22.99;22.62;99348.56;5015098;28;1050;-72
2023/12/16 09:01:21;;;;;;;;;;;;;;;23.01;22.48;99337.59;4996772;28;901;-72
2023/12/16 09:03:46;;;;;;;;;;;;;;;22.80;22.64;99342.25;4996298;28;1037;-72
2023/12/16 09:06:13;;;;;;;;;;;;;;;22.14;23.78;99344.47;4956448;29;1445;-71
2023/12/16 09:08:38;;;;;;;;;;;;;;;22.20;23.64;99331.44;4940404;29;1082;-72
2023/12/16 09:11:04;;;;;;;;;;;;;;;21.93;23.89;99339.72;4956181;29;967;-72
2023/12/16 09:13:30;;;;;;;;;;;;;;;21.97;23.87;99337.69;4940422;29;1910;-72
2023/12/16 09:15:57;;;;;;;;;;;;;;;21.89;24.07;99339.75;4940700;29;1160;-72
2023/12/16 09:18:22;;;;;;;;;;;;;;;21.96;23.96;99336.03;4924124;29;1009;-72
2023/12/16 09:20:48;;;;;;;;;;;;;;;22.47;23.44;99340.13;4940498;29;906;-72
2023/12/16 09:23:13;;;;;;;;;;;;;;;22.84;22.92;99337.31;4939830;29;1138;-72
2023/12/16 09:25:39;;;;;;;;;;;;;;;22.99;22.74;99342.88;4924237;29;903;-72
2023/12/16 09:28:04;;;;;;;;;;;;;;;22.92;22.77;99337.28;4924148;29;989;-71
2023/12/16 09:30:30;;;;;;;;;;;;;;;23.21;22.32;99344.28;4923992;29;1052;-72
2023/12/16 09:32:55;;;;;;;;;;;;;;;22.48;23.29;99338.91;4955766;29;1235;-72
2023/12/16 09:35:21;;;;;;;;;;;;;;;22.40;23.16;99334.53;4974322;28;1938;-72
2023/12/16 09:37:46;;;;;;;;;;;;;;;22.12;23.26;99335.56;4958838;28;1035;-72
2023/12/16 09:40:12;;;;;;;;;;;;;;;21.73;24.18;99320.41;4958802;28;1155;-72
2023/12/16 09:42:37;;;;;;;;;;;;;;;22.22;23.47;99329.78;4978248;28;1046;-73
2023/12/16 09:45:03;;;;;;;;;;;;;;;22.77;22.61;99320.38;5015399;28;954;-72
2023/12/16 09:47:29;;;;;;;;;;;;;;;22.63;23.17;99323.34;5016673;28;885;-72
2023/12/16 09:49:56;;;;;;;;;;;;;;;23.07;22.31;99322.50;4993912;28;1077;-72
2023/12/16 09:52:22;;;;;;;;;;;;;;;22.92;22.55;99325.94;4994056;28;1175;-71
2023/12/16 09:54:48;;;;;;;;;;;;;;;22.62;23.10;99328.22;4977829;28;1993;-72
2023/12/16 09:57:13;;;;;;;;;;;;;;;22.51;22.96;99333.19;4994085;28;988;-72
2023/12/16 09:59:38;;;;;;;;;;;;;;;22.35;23.21;99339.41;4990641;28;1270;-71
2023/12/16 10:02:05;;;;;;;;;;;;;;;22.15;23.71;99341.22;4978096;28;1027;-72
2023/12/16 10:04:31;;;;;;;;;;;;;;;22.47;23.46;99340.13;4977841;28;1005;-72
2023/12/16 10:06:56;;;;;;;;;;;;;;;22.71;22.93;99339.09;4977830;28;1001;-72
2023/12/16 10:09:22;;;;;;;;;;;;;;;22.91;22.58;99344.22;4993948;28;1227;-72
2023/12/16 10:11:51;;;;;;;;;;;;;;;22.87;22.58;99336.50;4994099;28;996;-72
2023/12/16 10:14:16;;;;;;;;;;;;;;;22.71;22.89;99344.78;4969843;28;2153;-72
2023/12/16 10:16:46;;;;;;;;;;;;;;;22.40;23.09;99345.88;4969056;28;1353;-71
2023/12/16 10:19:12;;;;;;;;;;;;;;;22.00;23.64;99345.34;4985669;28;1876;-72
2023/12/16 10:21:39;;;;;;;;;;;;;;;22.24;23.61;99344.38;4982860;28;1135;-72
2023/12/16 10:24:05;;;;;;;;;;;;;;;21.96;23.72;99350.22;5000147;28;1099;-73
2023/12/16 10:26:31;;;;;;;;;;;;;;;21.84;23.95;99355.16;4962740;28;1305;-73
2023/12/16 10:28:57;;;;;;;;;;;;;;;21.88;24.00;99365.66;5002386;28;1198;-73
2023/12/16 10:31:24;;;;;;;;;;;;;;;21.95;24.12;99365.59;5003998;28;1407;-73
2023/12/16 10:33:50;;;;;;;;;;;;;;;22.02;23.70;99354.22;5005684;28;1910;-73
2023/12/16 10:36:16;;;;;;;;;;;;;;;22.75;22.72;99345.53;4996801;28;1298;-73
2023/12/16 10:38:42;;;;;;;;;;;;;;;22.82;22.64;99350.34;4996634;28;1282;-74
2023/12/16 10:41:08;;;;;;;;;;;;;;;22.86;22.57;99360.44;5012795;28;1302;-73
2023/12/16 10:43:34;;;;;;;;;;;;;;;22.94;22.73;99357.53;4996700;28;1207;-73
2023/12/16 10:46:04;;;;;;;;;;;;;;;22.76;22.98;99352.03;4992781;28;1362;-73
2023/12/16 10:48:31;;;;;;;;;;;;;;;22.12;23.80;99353.38;4977396;28;1263;-73
2023/12/16 10:50:56;;;;;;;;;;;;;;;21.91;23.91;99356.31;4957917;28;1279;-73
2023/12/16 10:53:26;;;;;;;;;;;;;;;22.30;23.37;99356.88;4980701;28;1906;-73
2023/12/16 10:55:54;;;;;;;;;;;;;;;21.73;23.97;99367.78;4997639;28;1023;-73
2023/12/16 10:58:27;;;;;;;;;;;;;;;21.97;23.71;99361.16;4981036;28;1079;-73
2023/12/16 11:00:53;;;;;;;;;;;;;;;21.89;24.10;99367.28;4981102;28;979;-72
2023/12/16 11:03:28;;;;;;;;;;;;;;;22.06;23.92;99366.34;4980629;28;980;-73
2023/12/16 11:05:59;;;;;;;;;;;;;;;22.60;23.26;99366.78;4980942;28;1038;-73
2023/12/16 11:08:25;;;;;;;;;;;;;;;22.58;23.18;99363.53;4980782;28;1016;-73
2023/12/16 11:10:50;;;;;;;;;;;;;;;22.80;22.83;99364.97;4997002;28;1094;-73
2023/12/16 11:13:16;;;;;;;;;;;;;;;22.90;22.72;99373.78;4997034;28;1060;-73
2023/12/16 11:15:42;;;;;;;;;;;;;;;22.94;22.48;99360.38;4980473;28;1979;-73
2023/12/16 11:18:10;;;;;;;;;;;;;;;22.49;22.89;99377.41;4981233;28;964;-72
2023/12/16 11:20:42;;;;;;;;;;;;;;;22.32;23.30;99377.09;4996663;28;983;-72
2023/12/16 11:23:09;;;;;;;;;;;;;;;22.26;23.59;99381.63;4992761;28;1076;-73
2023/12/16 11:25:35;;;;;;;;;;;;;;;21.64;24.41;99371.03;5034154;28;944;-72
2023/12/16 11:28:00;;;;;;;;;;;;;;;22.14;23.82;99378.47;5018534;28;910;-72
2023/12/16 11:30:26;;;;;;;;;;;;;;;21.99;23.68;99377.72;5033921;28;925;-72
2023/12/16 11:32:55;;;;;;;;;;;;;;;21.32;24.64;99386.16;5018587;28;920;-73
2023/12/16 11:35:37;;;;;;;;;;;;;;;22.48;23.33;99376.56;5000853;28;1911;-73
2023/12/16 11:38:06;;;;;;;;;;;;;;;22.74;22.73;99395.00;5018373;28;1164;-72
2023/12/16 11:40:41;;;;;;;;;;;;;;;22.83;22.90;99391.66;5033884;28;963;-72
2023/12/16 11:43:06;;;;;;;;;;;;;;;22.90;22.83;99385.13;5017364;28;1095;-73
2023/12/16 11:45:39;;;;;;;;;;;;;;;23.03;22.63;99394.75;5017129;28;935;-72
2023/12/16 11:48:08;;;;;;;;;;;;;;;22.93;22.74;99398.50;5017343;28;960;-73
2023/12/16 11:50:34;;;;;;;;;;;;;;;22.67;22.87;99395.06;5016785;28;1139;-73
2023/12/16 11:53:00;;;;;;;;;;;;;;;22.38;23.33;99399.34;5017337;28;1195;-74
2023/12/16 11:55:25;;;;;;;;;;;;;;;22.00;23.71;99390.69;5017285;28;1975;-73
2023/12/16 11:57:51;;;;;;;;;;;;;;;22.34;23.65;99403.03;5016929;28;1047;-72
2023/12/16 12:00:17;;;;;;;;;;;;;;;22.63;23.16;99397.91;5000622;28;1143;-72
2023/12/16 12:02:43;;;;;;;;;;;;;;;23.01;22.64;99402.91;4981739;28;1253;-72
2023/12/16 12:05:12;;;;;;;;;;;;;;;23.02;22.46;99405.31;5015558;28;1001;-72
2023/12/16 12:07:40;;;;;;;;;;;;;;;22.78;22.79;99407.13;4983064;28;1556;-73
2023/12/16 12:10:06;;;;;;;;;;;;;;;22.67;23.01;99405.59;4999310;28;1057;-73
2023/12/16 12:12:31;;;;;;;;;;;;;;;22.55;23.04;99410.56;4999295;28;1195;-73
2023/12/16 12:14:57;;;;;;;;;;;;;;;22.06;23.56;99400.34;4999338;28;1993;-73
2023/12/16 12:17:22;;;;;;;;;;;;;;;22.35;23.25;99407.47;4999177;28;1239;-72
2023/12/16 12:19:48;;;;;;;;;;;;;;;22.61;23.04;99396.75;4999044;28;1236;-73
2023/12/16 12:22:14;;;;;;;;;;;;;;;22.85;22.90;99401.41;4999270;28;1067;-72
2023/12/16 12:24:39;;;;;;;;;;;;;;;22.95;22.63;99401.72;4999220;28;1024;-73
2023/12/16 12:27:05;;;;;;;;;;;;;;;22.94;22.53;99397.28;4999338;28;1174;-72
2023/12/16 12:29:49;;;;;;;;;;;;;;;22.88;22.48;99394.88;4982626;28;1226;-73
2023/12/16 12:32:14;;;;;;;;;;;;;;;22.18;23.32;99397.09;4998788;28;935;-73
2023/12/16 12:34:40;;;;;;;;;;;;;;;21.98;23.64;99398.81;5014172;28;1910;-73
2023/12/16 12:37:05;;;;;;;;;;;;;;;21.43;24.52;99411.59;5014842;28;952;-73
2023/12/16 12:39:31;;;;;;;;;;;;;;;22.04;23.67;99408.47;4982306;28;963;-72
2023/12/16 12:42:00;;;;;;;;;;;;;;;22.68;23.02;99413.69;4998861;28;1013;-73
2023/12/16 12:44:26;;;;;;;;;;;;;;;23.01;22.52;99405.72;4966481;28;1120;-73
2023/12/16 12:46:51;;;;;;;;;;;;;;;22.98;22.58;99415.88;4959471;28;1007;-73
2023/12/16 12:49:18;;;;;;;;;;;;;;;22.94;22.33;99419.97;4959873;28;1027;-73
2023/12/16 12:51:53;;;;;;;;;;;;;;;22.81;22.57;99425.34;4959708;28;1032;-73
2023/12/16 12:54:20;;;;;;;;;;;;;;;22.28;23.18;99429.44;4959848;28;1981;-72